sensor_id;sensor_type;location;lat;lon;timestamp;pressure;altitude;pressure_sealevel;temperature;humidity
44457;BME280;30159;49.316;8.558;2023-05-24T00:01:27;100839.53;;;13.95;80.95
44457;BME280;30159;49.316;8.558;2023-05-24T00:03:55;100836.09;;;13.89;81.34
44457;BME280;30159;49.316;8.558;2023-05-24T00:06:23;100825.88;;;13.81;81.49
44457;BME280;30159;49.316;8.558;2023-05-24T00:08:50;100837.84;;;13.80;83.28
44457;BME280;30159;49.316;8.558;2023-05-24T00:11:17;100824.22;;;13.85;82.93
44457;BME280;30159;49.316;8.558;2023-05-24T00:13:45;100822.03;;;13.87;82.12
44457;BME280;30159;49.316;8.558;2023-05-24T00:16:12;100822.22;;;13.91;82.52
44457;BME280;30159;49.316;8.558;2023-05-24T00:18:38;100819.16;;;13.79;82.75
44457;BME280;30159;49.316;8.558;2023-05-24T00:21:05;100820.09;;;13.69;83.10
44457;BME280;30159;49.316;8.558;2023-05-24T00:23:32;100811.50;;;13.62;83.65
44457;BME280;30159;49.316;8.558;2023-05-24T00:25:58;100813.28;;;13.72;83.94
44457;BME280;30159;49.316;8.558;2023-05-24T00:28:25;100815.47;;;13.69;84.55
44457;BME280;30159;49.316;8.558;2023-05-24T00:30:53;100797.59;;;13.68;83.99
44457;BME280;30159;49.316;8.558;2023-05-24T00:33:20;100818.16;;;13.69;84.42
44457;BME280;30159;49.316;8.558;2023-05-24T00:35:47;100745.13;;;13.35;83.95
44457;BME280;30159;49.316;8.558;2023-05-24T00:38:15;100799.53;;;13.63;85.24
44457;BME280;30159;49.316;8.558;2023-05-24T00:40:42;100804.50;;;13.56;84.46
44457;BME280;30159;49.316;8.558;2023-05-24T00:43:08;100801.88;;;13.51;85.76
44457;BME280;30159;49.316;8.558;2023-05-24T00:45:35;100800.13;;;13.60;84.90
44457;BME280;30159;49.316;8.558;2023-05-24T00:48:03;100801.53;;;13.57;85.03
44457;BME280;30159;49.316;8.558;2023-05-24T00:50:30;100800.94;;;13.60;84.26
44457;BME280;30159;49.316;8.558;2023-05-24T00:52:59;100801.00;;;13.55;84.81
44457;BME280;30159;49.316;8.558;2023-05-24T00:55:26;100795.00;;;13.58;84.72
44457;BME280;30159;49.316;8.558;2023-05-24T00:57:54;100786.31;;;13.61;83.76
44457;BME280;30159;49.316;8.558;2023-05-24T01:00:22;100787.66;;;13.59;84.42
44457;BME280;30159;49.316;8.558;2023-05-24T01:02:49;100789.63;;;13.53;83.19
44457;BME280;30159;49.316;8.558;2023-05-24T01:05:17;100799.75;;;13.47;84.90
44457;BME280;30159;49.316;8.558;2023-05-24T01:07:50;100783.81;;;13.41;84.71
44457;BME280;30159;49.316;8.558;2023-05-24T01:10:25;100782.03;;;13.31;84.34
44457;BME280;30159;49.316;8.558;2023-05-24T01:13:03;100782.84;;;13.32;85.76
44457;BME280;30159;49.316;8.558;2023-05-24T01:15:40;100779.22;;;13.12;84.06
44457;BME280;30159;49.316;8.558;2023-05-24T01:18:11;100786.53;;;13.12;85.32
44457;BME280;30159;49.316;8.558;2023-05-24T01:20:42;100787.84;;;13.19;85.74
44457;BME280;30159;49.316;8.558;2023-05-24T01:23:30;100790.00;;;13.17;85.11
44457;BME280;30159;49.316;8.558;2023-05-24T01:26:16;100790.63;;;13.09;85.07
44457;BME280;30159;49.316;8.558;2023-05-24T01:28:47;100791.91;;;13.17;84.66
44457;BME280;30159;49.316;8.558;2023-05-24T01:31:14;100788.50;;;13.06;84.69
44457;BME280;30159;49.316;8.558;2023-05-24T01:33:42;100789.50;;;13.15;83.91
44457;BME280;30159;49.316;8.558;2023-05-24T01:36:09;100795.97;;;13.19;84.70
44457;BME280;30159;49.316;8.558;2023-05-24T01:38:36;100796.00;;;13.14;83.17
44457;BME280;30159;49.316;8.558;2023-05-24T01:41:09;100802.22;;;13.15;84.24
44457;BME280;30159;49.316;8.558;2023-05-24T01:43:41;100799.00;;;13.13;83.03
44457;BME280;30159;49.316;8.558;2023-05-24T01:46:18;100796.03;;;13.09;83.36
44457;BME280;30159;49.316;8.558;2023-05-24T01:48:53;100757.59;;;12.83;83.15
44457;BME280;30159;49.316;8.558;2023-05-24T01:51:28;100808.78;;;13.08;82.68
44457;BME280;30159;49.316;8.558;2023-05-24T01:53:57;100801.97;;;13.11;82.90
44457;BME280;30159;49.316;8.558;2023-05-24T01:56:25;100809.00;;;13.12;83.63
44457;BME280;30159;49.316;8.558;2023-05-24T01:58:55;100809.50;;;13.19;81.46
44457;BME280;30159;49.316;8.558;2023-05-24T02:01:25;100808.97;;;13.17;82.50
44457;BME280;30159;49.316;8.558;2023-05-24T02:03:52;100821.41;;;13.18;81.47
44457;BME280;30159;49.316;8.558;2023-05-24T02:06:19;100822.53;;;13.12;82.41
44457;BME280;30159;49.316;8.558;2023-05-24T02:08:45;100820.41;;;13.09;82.31
44457;BME280;30159;49.316;8.558;2023-05-24T02:11:12;100819.34;;;13.10;82.67
44457;BME280;30159;49.316;8.558;2023-05-24T02:13:38;100818.84;;;13.03;81.78
44457;BME280;30159;49.316;8.558;2023-05-24T02:16:05;100822.94;;;13.00;82.66
44457;BME280;30159;49.316;8.558;2023-05-24T02:18:33;100819.41;;;13.00;82.15
44457;BME280;30159;49.316;8.558;2023-05-24T02:20:59;100818.84;;;13.03;81.96
44457;BME280;30159;49.316;8.558;2023-05-24T02:23:27;100823.94;;;13.10;81.91
44457;BME280;30159;49.316;8.558;2023-05-24T02:25:54;100819.09;;;13.06;81.62
44457;BME280;30159;49.316;8.558;2023-05-24T02:28:20;100822.59;;;13.07;82.67
44457;BME280;30159;49.316;8.558;2023-05-24T02:30:47;100823.97;;;13.04;82.02
44457;BME280;30159;49.316;8.558;2023-05-24T02:33:13;100828.13;;;12.97;82.02
44457;BME280;30159;49.316;8.558;2023-05-24T02:35:41;100817.72;;;12.75;82.83
44457;BME280;30159;49.316;8.558;2023-05-24T02:38:08;100824.25;;;12.74;83.93
44457;BME280;30159;49.316;8.558;2023-05-24T02:40:34;100826.19;;;12.68;84.63
44457;BME280;30159;49.316;8.558;2023-05-24T02:43:01;100816.44;;;12.67;84.44
44457;BME280;30159;49.316;8.558;2023-05-24T02:45:27;100830.03;;;12.62;84.40
44457;BME280;30159;49.316;8.558;2023-05-24T02:47:54;100825.41;;;12.62;84.02
44457;BME280;30159;49.316;8.558;2023-05-24T02:50:20;100828.47;;;12.51;84.28
44457;BME280;30159;49.316;8.558;2023-05-24T02:52:48;100831.28;;;12.35;85.64
44457;BME280;30159;49.316;8.558;2023-05-24T02:55:14;100835.66;;;12.31;85.73
44457;BME280;30159;49.316;8.558;2023-05-24T02:57:41;100831.31;;;12.30;85.63
44457;BME280;30159;49.316;8.558;2023-05-24T03:00:08;100828.06;;;12.28;86.33
44457;BME280;30159;49.316;8.558;2023-05-24T03:02:35;100817.88;;;12.20;85.76
44457;BME280;30159;49.316;8.558;2023-05-24T03:05:05;100824.56;;;12.28;86.01
44457;BME280;30159;49.316;8.558;2023-05-24T03:07:32;100741.06;;;11.71;86.25
44457;BME280;30159;49.316;8.558;2023-05-24T03:10:00;100821.63;;;12.19;86.49
44457;BME280;30159;49.316;8.558;2023-05-24T03:12:27;100828.41;;;12.16;86.35
44457;BME280;30159;49.316;8.558;2023-05-24T03:14:53;100821.72;;;12.09;86.47
44457;BME280;30159;49.316;8.558;2023-05-24T03:17:20;100800.16;;;11.98;86.98
44457;BME280;30159;49.316;8.558;2023-05-24T03:19:47;100803.59;;;12.09;86.31
44457;BME280;30159;49.316;8.558;2023-05-24T03:22:13;100813.56;;;12.14;86.30
44457;BME280;30159;49.316;8.558;2023-05-24T03:24:40;100815.44;;;12.18;86.18
44457;BME280;30159;49.316;8.558;2023-05-24T03:27:08;100816.22;;;12.19;86.10
44457;BME280;30159;49.316;8.558;2023-05-24T03:29:34;100813.31;;;12.10;86.82
44457;BME280;30159;49.316;8.558;2023-05-24T03:32:01;100817.91;;;12.15;86.74
44457;BME280;30159;49.316;8.558;2023-05-24T03:34:27;100813.31;;;12.10;87.08
44457;BME280;30159;49.316;8.558;2023-05-24T03:36:54;100809.22;;;12.18;86.13
44457;BME280;30159;49.316;8.558;2023-05-24T03:39:20;100820.63;;;12.05;86.47
44457;BME280;30159;49.316;8.558;2023-05-24T03:41:47;100820.59;;;12.10;86.91
44457;BME280;30159;49.316;8.558;2023-05-24T03:44:15;100789.63;;;11.92;86.63
44457;BME280;30159;49.316;8.558;2023-05-24T03:46:41;100826.63;;;12.01;87.08
44457;BME280;30159;49.316;8.558;2023-05-24T03:49:08;100653.88;;;10.95;87.17
44457;BME280;30159;49.316;8.558;2023-05-24T03:51:34;100828.72;;;12.10;87.36
44457;BME280;30159;49.316;8.558;2023-05-24T03:54:01;100830.94;;;11.97;87.26
44457;BME280;30159;49.316;8.558;2023-05-24T03:56:28;100832.03;;;12.01;86.97
44457;BME280;30159;49.316;8.558;2023-05-24T03:58:54;100837.97;;;12.04;87.39
44457;BME280;30159;49.316;8.558;2023-05-24T04:01:25;100839.03;;;12.02;86.88
44457;BME280;30159;49.316;8.558;2023-05-24T04:03:52;100841.75;;;11.97;87.63
44457;BME280;30159;49.316;8.558;2023-05-24T04:06:20;100835.03;;;11.95;87.06
44457;BME280;30159;49.316;8.558;2023-05-24T04:08:53;100832.09;;;11.91;87.66
44457;BME280;30159;49.316;8.558;2023-05-24T04:11:19;100827.75;;;11.85;87.44
44457;BME280;30159;49.316;8.558;2023-05-24T04:13:46;100820.19;;;11.87;87.27
44457;BME280;30159;49.316;8.558;2023-05-24T04:16:13;100807.22;;;11.79;86.61
44457;BME280;30159;49.316;8.558;2023-05-24T04:18:41;100831.25;;;11.96;86.87
44457;BME280;30159;49.316;8.558;2023-05-24T04:21:09;100838.53;;;11.95;87.32
44457;BME280;30159;49.316;8.558;2023-05-24T04:23:36;100775.41;;;11.66;87.07
44457;BME280;30159;49.316;8.558;2023-05-24T04:26:02;100826.31;;;12.08;85.73
44457;BME280;30159;49.316;8.558;2023-05-24T04:28:29;100828.22;;;12.08;86.17
44457;BME280;30159;49.316;8.558;2023-05-24T04:30:56;100821.81;;;11.88;86.77
44457;BME280;30159;49.316;8.558;2023-05-24T04:33:23;100827.41;;;12.02;86.98
44457;BME280;30159;49.316;8.558;2023-05-24T04:35:50;100833.97;;;11.96;86.73
44457;BME280;30159;49.316;8.558;2023-05-24T04:38:18;100825.22;;;12.09;85.77
44457;BME280;30159;49.316;8.558;2023-05-24T04:40:44;100826.00;;;12.15;85.41
44457;BME280;30159;49.316;8.558;2023-05-24T04:43:11;100826.78;;;12.20;86.52
44457;BME280;30159;49.316;8.558;2023-05-24T04:45:38;100825.06;;;12.35;85.18
44457;BME280;30159;49.316;8.558;2023-05-24T04:48:06;100801.38;;;12.16;84.89
44457;BME280;30159;49.316;8.558;2023-05-24T04:50:32;100828.13;;;12.23;84.75
44457;BME280;30159;49.316;8.558;2023-05-24T04:53:01;100821.06;;;12.27;85.72
44457;BME280;30159;49.316;8.558;2023-05-24T04:55:28;100818.84;;;12.34;84.58
44457;BME280;30159;49.316;8.558;2023-05-24T04:57:54;100831.34;;;12.25;84.53
44457;BME280;30159;49.316;8.558;2023-05-24T05:00:21;100832.47;;;12.19;84.39
44457;BME280;30159;49.316;8.558;2023-05-24T05:02:47;100837.91;;;12.14;84.65
44457;BME280;30159;49.316;8.558;2023-05-24T05:05:14;100835.28;;;11.98;85.12
44457;BME280;30159;49.316;8.558;2023-05-24T05:07:41;100834.50;;;11.93;85.79
44457;BME280;30159;49.316;8.558;2023-05-24T05:10:09;100846.03;;;12.09;85.15
44457;BME280;30159;49.316;8.558;2023-05-24T05:12:36;100846.50;;;12.26;84.28
44457;BME280;30159;49.316;8.558;2023-05-24T05:15:03;100838.84;;;12.38;83.02
44457;BME280;30159;49.316;8.558;2023-05-24T05:17:30;100851.88;;;12.31;83.65
44457;BME280;30159;49.316;8.558;2023-05-24T05:19:57;100849.56;;;12.54;82.33
44457;BME280;30159;49.316;8.558;2023-05-24T05:22:23;100853.75;;;12.70;80.84
44457;BME280;30159;49.316;8.558;2023-05-24T05:24:50;100858.75;;;13.21;78.60
44457;BME280;30159;49.316;8.558;2023-05-24T05:27:18;100860.44;;;13.46;76.76
44457;BME280;30159;49.316;8.558;2023-05-24T05:29:44;100857.34;;;13.58;76.45
44457;BME280;30159;49.316;8.558;2023-05-24T05:32:11;100860.25;;;13.38;76.69
44457;BME280;30159;49.316;8.558;2023-05-24T05:34:37;100847.69;;;13.18;76.80
44457;BME280;30159;49.316;8.558;2023-05-24T05:37:04;100850.84;;;12.96;77.88
44457;BME280;30159;49.316;8.558;2023-05-24T05:39:31;100863.25;;;12.73;79.39
44457;BME280;30159;49.316;8.558;2023-05-24T05:41:57;100859.16;;;12.36;81.08
44457;BME280;30159;49.316;8.558;2023-05-24T05:44:25;100848.44;;;12.60;80.68
44457;BME280;30159;49.316;8.558;2023-05-24T05:46:52;100857.00;;;12.72;79.66
44457;BME280;30159;49.316;8.558;2023-05-24T05:49:18;100813.13;;;12.41;79.58
44457;BME280;30159;49.316;8.558;2023-05-24T05:51:45;100854.66;;;12.95;77.78
44457;BME280;30159;49.316;8.558;2023-05-24T05:54:12;100833.91;;;12.85;79.05
44457;BME280;30159;49.316;8.558;2023-05-24T05:56:43;100859.13;;;13.10;77.42
44457;BME280;30159;49.316;8.558;2023-05-24T05:59:12;100836.94;;;12.78;78.16
44457;BME280;30159;49.316;8.558;2023-05-24T06:01:41;100870.13;;;13.23;76.07
44457;BME280;30159;49.316;8.558;2023-05-24T06:04:08;100870.41;;;13.51;75.20
44457;BME280;30159;49.316;8.558;2023-05-24T06:06:35;100858.63;;;14.28;73.05
44457;BME280;30159;49.316;8.558;2023-05-24T06:09:01;100867.72;;;14.94;69.70
44457;BME280;30159;49.316;8.558;2023-05-24T06:11:28;100871.31;;;14.51;70.78
44457;BME280;30159;49.316;8.558;2023-05-24T06:13:54;100873.13;;;13.99;72.50
44457;BME280;30159;49.316;8.558;2023-05-24T06:16:21;100880.19;;;13.18;75.51
44457;BME280;30159;49.316;8.558;2023-05-24T06:18:49;100881.53;;;12.86;77.82
44457;BME280;30159;49.316;8.558;2023-05-24T06:21:16;100869.78;;;13.01;78.86
44457;BME280;30159;49.316;8.558;2023-05-24T06:23:42;100877.09;;;13.00;78.41
44457;BME280;30159;49.316;8.558;2023-05-24T06:26:09;100882.81;;;12.99;77.96
44457;BME280;30159;49.316;8.558;2023-05-24T06:28:35;100884.94;;;12.62;78.50
44457;BME280;30159;49.316;8.558;2023-05-24T06:31:02;100885.69;;;12.34;80.90
44457;BME280;30159;49.316;8.558;2023-05-24T06:33:29;100888.91;;;12.36;81.54
44457;BME280;30159;49.316;8.558;2023-05-24T06:35:57;100885.94;;;13.11;78.85
44457;BME280;30159;49.316;8.558;2023-05-24T06:38:24;100886.16;;;13.97;73.93
44457;BME280;30159;49.316;8.558;2023-05-24T06:40:52;100892.41;;;15.58;69.25
44457;BME280;30159;49.316;8.558;2023-05-24T06:43:18;100880.53;;;16.59;65.99
44457;BME280;30159;49.316;8.558;2023-05-24T06:45:45;100892.22;;;17.19;64.28
44457;BME280;30159;49.316;8.558;2023-05-24T06:48:11;100899.41;;;17.15;62.54
44457;BME280;30159;49.316;8.558;2023-05-24T06:50:38;100892.56;;;16.95;61.51
44457;BME280;30159;49.316;8.558;2023-05-24T06:53:07;100900.75;;;16.44;63.30
44457;BME280;30159;49.316;8.558;2023-05-24T06:55:33;100897.13;;;16.85;63.11
44457;BME280;30159;49.316;8.558;2023-05-24T06:58:00;100903.56;;;17.75;61.39
44457;BME280;30159;49.316;8.558;2023-05-24T07:00:26;100901.84;;;18.53;57.63
44457;BME280;30159;49.316;8.558;2023-05-24T07:02:53;100904.13;;;18.78;56.74
44457;BME280;30159;49.316;8.558;2023-05-24T07:05:20;100908.44;;;18.44;57.02
44457;BME280;30159;49.316;8.558;2023-05-24T07:07:47;100902.97;;;17.24;58.82
44457;BME280;30159;49.316;8.558;2023-05-24T07:10:15;100871.75;;;17.70;59.65
44457;BME280;30159;49.316;8.558;2023-05-24T07:12:41;100898.34;;;18.79;57.20
44457;BME280;30159;49.316;8.558;2023-05-24T07:15:08;100852.38;;;19.75;55.07
44457;BME280;30159;49.316;8.558;2023-05-24T07:17:35;100911.00;;;20.34;52.91
44457;BME280;30159;49.316;8.558;2023-05-24T07:20:02;100928.81;;;19.89;55.39
44457;BME280;30159;49.316;8.558;2023-05-24T07:22:31;100905.81;;;20.83;52.55
44457;BME280;30159;49.316;8.558;2023-05-24T07:24:58;100908.69;;;20.87;50.83
44457;BME280;30159;49.316;8.558;2023-05-24T07:27:25;100911.00;;;20.04;50.77
44457;BME280;30159;49.316;8.558;2023-05-24T07:29:52;100907.81;;;19.55;54.34
44457;BME280;30159;49.316;8.558;2023-05-24T07:32:19;100898.84;;;22.01;49.31
44457;BME280;30159;49.316;8.558;2023-05-24T07:34:45;100915.41;;;21.56;47.80
44457;BME280;30159;49.316;8.558;2023-05-24T07:37:12;100922.44;;;21.78;48.37
44457;BME280;30159;49.316;8.558;2023-05-24T07:39:38;100920.72;;;21.73;48.07
44457;BME280;30159;49.316;8.558;2023-05-24T07:42:05;100908.69;;;20.87;48.83
44457;BME280;30159;49.316;8.558;2023-05-24T07:44:33;100921.03;;;20.51;48.57
44457;BME280;30159;49.316;8.558;2023-05-24T07:47:00;100926.63;;;19.01;50.03
44457;BME280;30159;49.316;8.558;2023-05-24T07:49:27;100926.84;;;19.51;49.35
44457;BME280;30159;49.316;8.558;2023-05-24T07:51:54;100914.97;;;20.15;47.73
44457;BME280;30159;49.316;8.558;2023-05-24T07:54:22;100917.06;;;20.69;48.29
44457;BME280;30159;49.316;8.558;2023-05-24T07:56:49;100916.06;;;20.23;48.21
44457;BME280;30159;49.316;8.558;2023-05-24T07:59:16;100894.50;;;19.53;48.17
44457;BME280;30159;49.316;8.558;2023-05-24T08:01:44;100894.16;;;18.90;49.83
44457;BME280;30159;49.316;8.558;2023-05-24T08:04:11;100913.47;;;19.58;49.96
44457;BME280;30159;49.316;8.558;2023-05-24T08:06:38;100897.06;;;18.77;50.60
44457;BME280;30159;49.316;8.558;2023-05-24T08:09:05;100892.97;;;18.48;51.60
44457;BME280;30159;49.316;8.558;2023-05-24T08:11:33;100851.63;;;16.72;55.36
44457;BME280;30159;49.316;8.558;2023-05-24T08:13:59;100910.84;;;16.44;55.83
44457;BME280;30159;49.316;8.558;2023-05-24T08:16:26;100903.38;;;16.36;55.88
44457;BME280;30159;49.316;8.558;2023-05-24T08:18:54;100898.50;;;15.83;56.71
44457;BME280;30159;49.316;8.558;2023-05-24T08:21:21;100909.28;;;15.74;56.26
44457;BME280;30159;49.316;8.558;2023-05-24T08:23:47;100905.28;;;15.52;57.46
44457;BME280;30159;49.316;8.558;2023-05-24T08:26:14;100909.41;;;15.50;57.82
44457;BME280;30159;49.316;8.558;2023-05-24T08:28:43;100901.22;;;15.83;55.57
44457;BME280;30159;49.316;8.558;2023-05-24T08:31:09;100903.94;;;15.83;55.37
44457;BME280;30159;49.316;8.558;2023-05-24T08:33:36;100899.91;;;15.33;56.59
44457;BME280;30159;49.316;8.558;2023-05-24T08:36:04;100899.75;;;15.44;56.27
44457;BME280;30159;49.316;8.558;2023-05-24T08:38:31;100904.28;;;15.48;55.65
44457;BME280;30159;49.316;8.558;2023-05-24T08:40:57;100893.06;;;15.22;57.33
44457;BME280;30159;49.316;8.558;2023-05-24T08:43:25;100898.94;;;15.29;57.29
44457;BME280;30159;49.316;8.558;2023-05-24T08:45:55;100907.19;;;15.52;56.14
44457;BME280;30159;49.316;8.558;2023-05-24T08:48:24;100914.28;;;15.67;56.40
44457;BME280;30159;49.316;8.558;2023-05-24T08:50:50;100918.97;;;15.47;56.64
44457;BME280;30159;49.316;8.558;2023-05-24T08:53:20;100909.38;;;15.22;56.63
44457;BME280;30159;49.316;8.558;2023-05-24T08:55:48;100920.63;;;15.15;56.23
44457;BME280;30159;49.316;8.558;2023-05-24T08:58:17;100911.06;;;15.18;56.36
44457;BME280;30159;49.316;8.558;2023-05-24T09:00:44;100906.84;;;15.26;57.83
44457;BME280;30159;49.316;8.558;2023-05-24T09:03:11;100910.59;;;15.30;58.20
44457;BME280;30159;49.316;8.558;2023-05-24T09:05:39;100915.47;;;15.60;58.29
44457;BME280;30159;49.316;8.558;2023-05-24T09:08:07;100926.69;;;15.73;57.24
44457;BME280;30159;49.316;8.558;2023-05-24T09:10:36;100922.94;;;15.55;57.13
44457;BME280;30159;49.316;8.558;2023-05-24T09:13:04;100918.28;;;15.42;56.55
44457;BME280;30159;49.316;8.558;2023-05-24T09:15:32;100895.91;;;15.45;55.79
44457;BME280;30159;49.316;8.558;2023-05-24T09:17:59;100922.31;;;15.44;55.17
44457;BME280;30159;49.316;8.558;2023-05-24T09:20:25;100911.03;;;15.51;56.97
44457;BME280;30159;49.316;8.558;2023-05-24T09:22:52;100913.06;;;15.59;57.10
44457;BME280;30159;49.316;8.558;2023-05-24T09:25:19;100910.66;;;15.57;55.95
44457;BME280;30159;49.316;8.558;2023-05-24T09:27:49;100916.09;;;15.57;55.73
44457;BME280;30159;49.316;8.558;2023-05-24T09:30:17;100907.59;;;15.45;56.35
44457;BME280;30159;49.316;8.558;2023-05-24T09:32:53;100905.75;;;15.87;57.05
44457;BME280;30159;49.316;8.558;2023-05-24T09:35:21;100912.97;;;15.64;56.88
44457;BME280;30159;49.316;8.558;2023-05-24T09:37:48;100903.19;;;15.63;57.06
44457;BME280;30159;49.316;8.558;2023-05-24T09:40:17;100902.19;;;15.59;56.55
44457;BME280;30159;49.316;8.558;2023-05-24T09:42:44;100895.13;;;15.58;57.07
44457;BME280;30159;49.316;8.558;2023-05-24T09:45:12;100879.03;;;15.48;55.79
44457;BME280;30159;49.316;8.558;2023-05-24T09:47:40;100902.00;;;15.69;55.63
44457;BME280;30159;49.316;8.558;2023-05-24T09:50:11;100829.34;;;15.28;56.66
44457;BME280;30159;49.316;8.558;2023-05-24T09:52:38;100885.09;;;15.72;56.45
44457;BME280;30159;49.316;8.558;2023-05-24T09:55:12;100852.53;;;15.53;56.13
44457;BME280;30159;49.316;8.558;2023-05-24T09:57:39;100890.94;;;15.93;55.78
44457;BME280;30159;49.316;8.558;2023-05-24T10:00:07;100876.25;;;15.80;58.22
44457;BME280;30159;49.316;8.558;2023-05-24T10:02:43;100878.34;;;16.11;58.65
44457;BME280;30159;49.316;8.558;2023-05-24T10:05:10;100872.56;;;16.27;57.26
44457;BME280;30159;49.316;8.558;2023-05-24T10:07:37;100881.78;;;16.53;57.29
44457;BME280;30159;49.316;8.558;2023-05-24T10:10:05;100877.34;;;16.57;57.16
44457;BME280;30159;49.316;8.558;2023-05-24T10:12:32;100853.38;;;16.68;57.25
44457;BME280;30159;49.316;8.558;2023-05-24T10:15:00;100851.69;;;16.58;57.21
44457;BME280;30159;49.316;8.558;2023-05-24T10:17:26;100888.97;;;16.85;56.41
44457;BME280;30159;49.316;8.558;2023-05-24T10:19:54;100880.44;;;16.64;55.28
44457;BME280;30159;49.316;8.558;2023-05-24T10:22:22;100883.63;;;17.03;55.69
44457;BME280;30159;49.316;8.558;2023-05-24T10:24:52;100888.47;;;17.37;54.05
44457;BME280;30159;49.316;8.558;2023-05-24T10:27:26;100841.06;;;17.16;54.75
44457;BME280;30159;49.316;8.558;2023-05-24T10:30:00;100873.53;;;17.35;54.46
44457;BME280;30159;49.316;8.558;2023-05-24T10:32:31;100878.69;;;17.76;54.06
44457;BME280;30159;49.316;8.558;2023-05-24T10:35:00;100872.75;;;17.74;53.84
44457;BME280;30159;49.316;8.558;2023-05-24T10:37:29;100876.88;;;17.63;53.05
44457;BME280;30159;49.316;8.558;2023-05-24T10:39:56;100865.69;;;17.11;53.58
44457;BME280;30159;49.316;8.558;2023-05-24T10:42:23;100868.31;;;16.93;53.74
44457;BME280;30159;49.316;8.558;2023-05-24T10:44:50;100863.75;;;16.66;53.95
44457;BME280;30159;49.316;8.558;2023-05-24T10:47:19;100848.56;;;16.29;54.83
44457;BME280;30159;49.316;8.558;2023-05-24T10:49:47;100871.34;;;16.33;55.68
44457;BME280;30159;49.316;8.558;2023-05-24T10:52:17;100877.22;;;16.12;56.09
44457;BME280;30159;49.316;8.558;2023-05-24T10:55:00;100857.28;;;16.03;56.61
44457;BME280;30159;49.316;8.558;2023-05-24T10:57:28;100827.28;;;15.80;56.70
44457;BME280;30159;49.316;8.558;2023-05-24T10:59:56;100846.38;;;16.03;56.27
44457;BME280;30159;49.316;8.558;2023-05-24T11:02:26;100858.06;;;16.17;56.66
44457;BME280;30159;49.316;8.558;2023-05-24T11:04:54;100872.81;;;16.02;56.70
44457;BME280;30159;49.316;8.558;2023-05-24T11:07:22;100870.59;;;16.05;56.56
44457;BME280;30159;49.316;8.558;2023-05-24T11:09:49;100717.34;;;15.04;57.59
44457;BME280;30159;49.316;8.558;2023-05-24T11:12:21;100874.38;;;16.17;57.59
44457;BME280;30159;49.316;8.558;2023-05-24T11:14:49;100873.00;;;16.06;56.74
44457;BME280;30159;49.316;8.558;2023-05-24T11:17:17;100863.50;;;16.17;57.37
44457;BME280;30159;49.316;8.558;2023-05-24T11:19:45;100858.50;;;16.11;57.42
44457;BME280;30159;49.316;8.558;2023-05-24T11:22:13;100866.19;;;16.31;56.98
44457;BME280;30159;49.316;8.558;2023-05-24T11:24:42;100853.91;;;16.20;55.99
44457;BME280;30159;49.316;8.558;2023-05-24T11:27:10;100877.22;;;16.12;57.41
44457;BME280;30159;49.316;8.558;2023-05-24T11:29:41;100821.78;;;16.08;56.67
44457;BME280;30159;49.316;8.558;2023-05-24T11:32:09;100839.66;;;15.87;57.38
44457;BME280;30159;49.316;8.558;2023-05-24T11:34:39;100848.06;;;16.13;56.90
44457;BME280;30159;49.316;8.558;2023-05-24T11:37:09;100800.38;;;15.79;55.98
44457;BME280;30159;49.316;8.558;2023-05-24T11:39:36;100848.63;;;16.37;55.95
44457;BME280;30159;49.316;8.558;2023-05-24T11:42:06;100850.19;;;16.52;54.89
44457;BME280;30159;49.316;8.558;2023-05-24T11:44:33;100855.13;;;16.50;55.24
44457;BME280;30159;49.316;8.558;2023-05-24T11:47:04;100858.38;;;16.52;55.08
44457;BME280;30159;49.316;8.558;2023-05-24T11:49:30;100847.41;;;16.43;54.92
44457;BME280;30159;49.316;8.558;2023-05-24T11:51:58;100850.41;;;16.56;54.26
44457;BME280;30159;49.316;8.558;2023-05-24T11:54:26;100824.72;;;16.48;53.45
44457;BME280;30159;49.316;8.558;2023-05-24T11:56:53;100847.75;;;16.87;53.33
44457;BME280;30159;49.316;8.558;2023-05-24T11:59:23;100836.22;;;16.68;53.17
44457;BME280;30159;49.316;8.558;2023-05-24T12:01:55;100841.44;;;16.55;53.36
44457;BME280;30159;49.316;8.558;2023-05-24T12:04:23;100834.19;;;16.51;53.11
44457;BME280;30159;49.316;8.558;2023-05-24T12:06:49;100846.63;;;16.65;53.19
44457;BME280;30159;49.316;8.558;2023-05-24T12:09:16;100824.00;;;16.79;52.72
44457;BME280;30159;49.316;8.558;2023-05-24T12:11:45;100832.25;;;16.96;52.83
44457;BME280;30159;49.316;8.558;2023-05-24T12:14:13;100832.25;;;16.96;52.43
44457;BME280;30159;49.316;8.558;2023-05-24T12:16:43;100823.22;;;16.87;51.67
44457;BME280;30159;49.316;8.558;2023-05-24T12:19:12;100804.59;;;16.80;50.42
44457;BME280;30159;49.316;8.558;2023-05-24T12:21:41;100822.72;;;16.85;51.48
44457;BME280;30159;49.316;8.558;2023-05-24T12:24:09;100836.56;;;16.52;53.18
44457;BME280;30159;49.316;8.558;2023-05-24T12:26:36;100823.56;;;16.85;52.29
44457;BME280;30159;49.316;8.558;2023-05-24T12:29:05;100829.81;;;16.86;51.13
44457;BME280;30159;49.316;8.558;2023-05-24T12:31:33;100824.09;;;16.96;50.35
44457;BME280;30159;49.316;8.558;2023-05-24T12:34:01;100826.31;;;16.94;50.93
44457;BME280;30159;49.316;8.558;2023-05-24T12:36:28;100816.91;;;16.78;51.74
44457;BME280;30159;49.316;8.558;2023-05-24T12:38:56;100817.28;;;16.85;50.13
44457;BME280;30159;49.316;8.558;2023-05-24T12:41:22;100816.19;;;16.86;50.52
44457;BME280;30159;49.316;8.558;2023-05-24T12:43:50;100810.88;;;16.81;50.42
44457;BME280;30159;49.316;8.558;2023-05-24T12:46:17;100816.34;;;16.67;50.02
44457;BME280;30159;49.316;8.558;2023-05-24T12:48:43;100761.88;;;16.67;49.26
44457;BME280;30159;49.316;8.558;2023-05-24T12:51:11;100810.41;;;16.88;50.12
44457;BME280;30159;49.316;8.558;2023-05-24T12:53:38;100797.75;;;16.83;48.78